PWSweather.com
Personal Weather Stations
Station Observations
SBERGENWX
Wood Ridge, NJ 07075

Wood Ridge, NJ 07075

Lat: 40.851667, Lon: -74.088131

Elevation: 177

Station Type: Davis Vantage Vue

http://201weather.com/

High Low Average
Temperature 32.6°F0.3°C 26.2°F-3.2°C 29.6°F-1.3°C
Dew Point 18.0°F-7.8°C 14.2°F-9.9°C 17.0°F-8.3°C
Winds 6.9 mph 11.1 kmh Calm Calm 2.0 mph WNW3.2 kmh WNW
Wind Gusts 12.7 mph20.4 kmh -- 5.0 mph8.0 kmh
Humidity 63% 54% 59%
Pressure 29.98 in1015.2 mb 29.73 in1006.8 mb -
Precipitation 0.03 in0.8 mm - -
Hour Temp Dew Point Humidity Winds Wind Gusts Pressure Precip Precip Rate Daily Precip Total
02:45 PM 32.4°F0.2°C 18.0°F-7.8°C 55% 2.3 mph N3.7 kmh N 3.5 mph5.6 kmh 29.73 in1006.8 mb - 0.00 in0.0 mm 0.02 in0.5 mm
03:00 PM 32.0°F0.0°C 17.6°F-8.0°C 55% 6.9 mph NW11.1 kmh NW 12.7 mph20.4 kmh 29.74 in1007.1 mb - 0.00 in0.0 mm 0.02 in0.5 mm
03:15 PM 31.9°F-0.1°C 18.0°F-7.8°C 56% 1.2 mph NW1.9 kmh NW 8.1 mph13.0 kmh 29.74 in1007.1 mb - 0.00 in0.0 mm 0.02 in0.5 mm
03:30 PM 32.6°F0.3°C 17.8°F-7.9°C 54% 2.3 mph NNW3.7 kmh NNW 5.8 mph9.3 kmh 29.75 in1007.5 mb - 0.00 in0.0 mm 0.02 in0.5 mm
03:45 PM 32.4°F0.2°C 18.0°F-7.8°C 55% 2.3 mph NW3.7 kmh NW 5.8 mph9.3 kmh 29.76 in1007.8 mb - 0.00 in0.0 mm 0.02 in0.5 mm
04:00 PM 32.3°F0.2°C 17.9°F-7.8°C 55% 3.5 mph NW5.6 kmh NW 8.1 mph13.0 kmh 29.77 in1008.1 mb - 0.00 in0.0 mm 0.02 in0.5 mm
04:15 PM 31.7°F-0.2°C 17.4°F-8.1°C 55% 2.3 mph NW3.7 kmh NW 6.9 mph11.1 kmh 29.78 in1008.5 mb - 0.00 in0.0 mm 0.02 in0.5 mm
04:30 PM 31.8°F-0.1°C 17.9°F-7.8°C 56% 2.3 mph NW3.7 kmh NW 4.6 mph7.4 kmh 29.79 in1008.8 mb - 0.00 in0.0 mm 0.02 in0.5 mm
04:45 PM 32.4°F0.2°C 18.0°F-7.8°C 55% 1.2 mph NW1.9 kmh NW 6.9 mph11.1 kmh 29.79 in1008.8 mb - 0.00 in0.0 mm 0.02 in0.5 mm
05:00 PM 31.9°F-0.1°C 18.0°F-7.8°C 56% 2.3 mph W3.7 kmh W 9.2 mph14.8 kmh 29.80 in1009.1 mb - 0.00 in0.0 mm 0.02 in0.5 mm
05:15 PM 31.5°F-0.3°C 18.0°F-7.8°C 57% 2.3 mph W3.7 kmh W 3.5 mph5.6 kmh 29.81 in1009.5 mb - 0.00 in0.0 mm 0.02 in0.5 mm
05:30 PM 31.2°F-0.4°C 17.7°F-7.9°C 57% Calm Calm 3.5 mph5.6 kmh 29.83 in1010.2 mb - 0.00 in0.0 mm 0.02 in0.5 mm
05:45 PM 30.7°F-0.7°C 17.3°F-8.2°C 57% 1.2 mph N1.9 kmh N 3.5 mph5.6 kmh 29.84 in1010.5 mb - 0.00 in0.0 mm 0.02 in0.5 mm
06:00 PM 30.4°F-0.9°C 17.0°F-8.3°C 57% 2.3 mph WNW3.7 kmh WNW 5.8 mph9.3 kmh 29.85 in1010.8 mb - 0.00 in0.0 mm 0.02 in0.5 mm
06:15 PM 30.2°F-1.0°C 17.2°F-8.2°C 58% 2.3 mph NNW3.7 kmh NNW 5.8 mph9.3 kmh 29.85 in1010.8 mb - 0.00 in0.0 mm 0.02 in0.5 mm
06:30 PM 30.1°F-1.1°C 17.5°F-8.1°C 59% 4.6 mph NW7.4 kmh NW 8.1 mph13.0 kmh 29.86 in1011.2 mb - 0.00 in0.0 mm 0.02 in0.5 mm
06:45 PM 30.0°F-1.1°C 17.4°F-8.1°C 59% 2.3 mph NW3.7 kmh NW 6.9 mph11.1 kmh 29.87 in1011.5 mb - 0.00 in0.0 mm 0.02 in0.5 mm
07:00 PM 29.6°F-1.3°C 17.4°F-8.1°C 60% Calm Calm 1.2 mph1.9 kmh 29.88 in1011.9 mb - 0.00 in0.0 mm 0.02 in0.5 mm
07:15 PM 29.6°F-1.3°C 17.4°F-8.1°C 60% 1.2 mph NW1.9 kmh NW 3.5 mph5.6 kmh 29.88 in1011.9 mb - 0.00 in0.0 mm 0.02 in0.5 mm
07:30 PM 29.5°F-1.4°C 17.7°F-7.9°C 61% Calm Calm 1.2 mph1.9 kmh 29.89 in1012.2 mb - 0.00 in0.0 mm 0.02 in0.5 mm
07:45 PM 29.2°F-1.6°C 17.8°F-7.9°C 62% 1.2 mph WNW1.9 kmh WNW 8.1 mph13.0 kmh 29.90 in1012.5 mb - 0.00 in0.0 mm 0.02 in0.5 mm
08:00 PM 29.2°F-1.6°C 17.0°F-8.3°C 60% 4.6 mph NW7.4 kmh NW 10.4 mph16.7 kmh 29.90 in1012.5 mb - 0.00 in0.0 mm 0.02 in0.5 mm
08:15 PM 28.9°F-1.7°C 17.5°F-8.1°C 62% 2.3 mph N3.7 kmh N 3.5 mph5.6 kmh 29.91 in1012.9 mb - 0.00 in0.0 mm 0.02 in0.5 mm
08:30 PM 28.8°F-1.8°C 17.4°F-8.1°C 62% Calm Calm -- 29.91 in1012.9 mb - 0.00 in0.0 mm 0.02 in0.5 mm
08:45 PM 28.6°F-1.9°C 17.2°F-8.2°C 62% Calm Calm -- 29.92 in1013.2 mb - 0.00 in0.0 mm 0.02 in0.5 mm
09:00 PM 28.4°F-2.0°C 17.4°F-8.1°C 63% Calm Calm 3.5 mph5.6 kmh 29.93 in1013.5 mb - 0.00 in0.0 mm 0.02 in0.5 mm
09:15 PM 28.6°F-1.9°C 17.6°F-8.0°C 63% Calm Calm 2.3 mph3.7 kmh 29.93 in1013.5 mb - 0.01 in0.3 mm 0.03 in0.8 mm
09:30 PM 28.6°F-1.9°C 17.6°F-8.0°C 63% 1.2 mph W1.9 kmh W 3.5 mph5.6 kmh 29.94 in1013.9 mb - 0.01 in0.3 mm 0.03 in0.8 mm
09:45 PM 28.5°F-1.9°C 16.4°F-8.7°C 60% 2.3 mph WNW3.7 kmh WNW 3.5 mph5.6 kmh 29.94 in1013.9 mb - 0.01 in0.3 mm 0.03 in0.8 mm
10:00 PM 28.4°F-2.0°C 16.3°F-8.7°C 60% 1.2 mph N1.9 kmh N 4.6 mph7.4 kmh 29.95 in1014.2 mb - 0.01 in0.3 mm 0.03 in0.8 mm
10:15 PM 28.3°F-2.1°C 16.2°F-8.8°C 60% Calm Calm 2.3 mph3.7 kmh 29.95 in1014.2 mb - 0.00 in0.0 mm 0.03 in0.8 mm
10:30 PM 28.3°F-2.1°C 16.6°F-8.6°C 61% 1.2 mph NNW1.9 kmh NNW 3.5 mph5.6 kmh 29.95 in1014.2 mb - 0.00 in0.0 mm 0.03 in0.8 mm
10:45 PM 28.1°F-2.2°C 16.7°F-8.5°C 62% 2.3 mph NW3.7 kmh NW 3.5 mph5.6 kmh 29.95 in1014.2 mb - 0.00 in0.0 mm 0.03 in0.8 mm
11:00 PM 27.9°F-2.3°C 16.9°F-8.4°C 63% Calm Calm 5.8 mph9.3 kmh 29.96 in1014.6 mb - 0.00 in0.0 mm 0.03 in0.8 mm
11:15 PM 27.7°F-2.4°C 16.4°F-8.7°C 62% 2.3 mph NW3.7 kmh NW 2.3 mph3.7 kmh 29.96 in1014.6 mb - 0.00 in0.0 mm 0.03 in0.8 mm
11:30 PM 27.5°F-2.5°C 15.4°F-9.2°C 60% 2.3 mph WNW3.7 kmh WNW 11.5 mph18.5 kmh 29.96 in1014.6 mb - 0.00 in0.0 mm 0.03 in0.8 mm
11:45 PM 27.0°F-2.8°C 14.6°F-9.7°C 59% 2.3 mph NW3.7 kmh NW 6.9 mph11.1 kmh 29.96 in1014.6 mb - 0.00 in0.0 mm 0.03 in0.8 mm